sensor_id;sensor_type;location;lat;lon;timestamp;pressure;altitude;pressure_sealevel;temperature;humidity
73692;BME280;61996;49.910;35.562;2024-02-28T00:02:13;100687.72;;;18.40;40.15
73692;BME280;61996;49.910;35.562;2024-02-28T00:05:18;100692.91;;;18.42;40.29
73692;BME280;61996;49.910;35.562;2024-02-28T00:08:20;100698.47;;;18.39;40.25
73692;BME280;61996;49.910;35.562;2024-02-28T00:11:23;100701.56;;;18.32;40.37
73692;BME280;61996;49.910;35.562;2024-02-28T00:14:26;100710.66;;;18.30;40.32
73692;BME280;61996;49.910;35.562;2024-02-28T00:17:29;100701.16;;;18.26;40.35
73692;BME280;61996;49.910;35.562;2024-02-28T00:20:34;100700.53;;;18.22;40.33
73692;BME280;61996;49.910;35.562;2024-02-28T00:23:36;100699.16;;;18.17;40.29
73692;BME280;61996;49.910;35.562;2024-02-28T00:26:40;100692.22;;;18.14;40.48
73692;BME280;61996;49.910;35.562;2024-02-28T00:29:43;100689.91;;;18.10;40.64
73692;BME280;61996;49.910;35.562;2024-02-28T00:32:47;100682.97;;;18.07;40.39
73692;BME280;61996;49.910;35.562;2024-02-28T00:35:51;100694.81;;;18.03;40.52
73692;BME280;61996;49.910;35.562;2024-02-28T00:38:55;100695.13;;;17.98;40.55
73692;BME280;61996;49.910;35.562;2024-02-28T00:41:58;100705.03;;;17.96;40.47
73692;BME280;61996;49.910;35.562;2024-02-28T00:45:01;100716.09;;;17.90;40.54
73692;BME280;61996;49.910;35.562;2024-02-28T00:48:04;100703.03;;;17.87;40.60
73692;BME280;61996;49.910;35.562;2024-02-28T00:51:09;100707.56;;;17.85;40.60
73692;BME280;61996;49.910;35.562;2024-02-28T00:54:12;100713.13;;;17.82;40.65
73692;BME280;61996;49.910;35.562;2024-02-28T00:57:14;100709.81;;;17.78;40.68
73692;BME280;61996;49.910;35.562;2024-02-28T01:00:17;100717.91;;;17.77;40.66
73692;BME280;61996;49.910;35.562;2024-02-28T01:03:21;100707.38;;;17.75;40.77
73692;BME280;61996;49.910;35.562;2024-02-28T01:06:25;100711.97;;;17.73;40.79
73692;BME280;61996;49.910;35.562;2024-02-28T01:09:29;100704.38;;;17.67;40.68
73692;BME280;61996;49.910;35.562;2024-02-28T01:12:32;100705.41;;;17.65;40.83
73692;BME280;61996;49.910;35.562;2024-02-28T01:15:36;100700.19;;;17.63;40.83
73692;BME280;61996;49.910;35.562;2024-02-28T01:18:39;100701.28;;;17.61;40.81
73692;BME280;61996;49.910;35.562;2024-02-28T01:21:43;100702.66;;;17.53;40.86
73692;BME280;61996;49.910;35.562;2024-02-28T01:24:46;100700.06;;;17.52;40.86
73692;BME280;61996;49.910;35.562;2024-02-28T01:27:49;100701.88;;;17.51;41.16
73692;BME280;61996;49.910;35.562;2024-02-28T01:30:52;100698.69;;;17.46;40.95
73692;BME280;61996;49.910;35.562;2024-02-28T01:33:55;100710.47;;;17.42;41.18
73692;BME280;61996;49.910;35.562;2024-02-28T01:37:00;100707.72;;;17.44;41.01
73692;BME280;61996;49.910;35.562;2024-02-28T01:40:04;100712.59;;;17.37;41.03
73692;BME280;61996;49.910;35.562;2024-02-28T01:43:07;100710.03;;;17.36;41.10
73692;BME280;61996;49.910;35.562;2024-02-28T01:46:14;100717.06;;;17.37;41.11
73692;BME280;61996;49.910;35.562;2024-02-28T01:49:22;100725.16;;;17.35;41.04
73692;BME280;61996;49.910;35.562;2024-02-28T01:52:27;100718.44;;;17.30;41.23
73692;BME280;61996;49.910;35.562;2024-02-28T01:55:30;100720.13;;;17.31;41.22
73692;BME280;61996;49.910;35.562;2024-02-28T01:58:33;100718.75;;;17.25;41.25
73692;BME280;61996;49.910;35.562;2024-02-28T02:01:36;100718.94;;;17.22;41.26
73692;BME280;61996;49.910;35.562;2024-02-28T02:04:39;100724.38;;;17.20;41.10
73692;BME280;61996;49.910;35.562;2024-02-28T02:07:44;100716.41;;;17.20;41.28
73692;BME280;61996;49.910;35.562;2024-02-28T02:10:48;100716.59;;;17.17;41.27
73692;BME280;61996;49.910;35.562;2024-02-28T02:13:51;100717.66;;;17.15;41.24
73692;BME280;61996;49.910;35.562;2024-02-28T02:16:54;100725.72;;;17.13;41.16
73692;BME280;61996;49.910;35.562;2024-02-28T02:19:57;100729.25;;;17.14;41.11
73692;BME280;61996;49.910;35.562;2024-02-28T02:23:01;100729.44;;;17.11;41.10
73692;BME280;61996;49.910;35.562;2024-02-28T02:26:04;100732.19;;;17.09;41.19
73692;BME280;61996;49.910;35.562;2024-02-28T02:29:07;100736.88;;;17.06;41.36
73692;BME280;61996;49.910;35.562;2024-02-28T02:32:11;100722.91;;;17.02;41.46
73692;BME280;61996;49.910;35.562;2024-02-28T02:35:13;100735.16;;;17.05;41.22
73692;BME280;61996;49.910;35.562;2024-02-28T02:38:18;100726.41;;;17.03;41.29
73692;BME280;61996;49.910;35.562;2024-02-28T02:41:21;100731.09;;;16.99;41.27
73692;BME280;61996;49.910;35.562;2024-02-28T02:44:24;100732.13;;;16.96;41.24
73692;BME280;61996;49.910;35.562;2024-02-28T02:47:27;100738.41;;;16.95;41.28
73692;BME280;61996;49.910;35.562;2024-02-28T02:50:30;100741.06;;;16.95;41.40
73692;BME280;61996;49.910;35.562;2024-02-28T02:53:34;100736.91;;;16.91;41.34
73692;BME280;61996;49.910;35.562;2024-02-28T02:56:40;100745.00;;;16.90;41.31
73692;BME280;61996;49.910;35.562;2024-02-28T02:59:43;100746.59;;;16.92;41.36
73692;BME280;61996;49.910;35.562;2024-02-28T03:02:46;100740.44;;;16.92;41.46
73692;BME280;61996;49.910;35.562;2024-02-28T03:05:49;100746.03;;;16.87;41.47
73692;BME280;61996;49.910;35.562;2024-02-28T03:08:53;100739.69;;;16.90;41.44
73692;BME280;61996;49.910;35.562;2024-02-28T03:11:56;100744.22;;;16.88;41.56
73692;BME280;61996;49.910;35.562;2024-02-28T03:14:59;100747.84;;;16.87;41.36
73692;BME280;61996;49.910;35.562;2024-02-28T03:18:02;100749.75;;;16.85;41.47
73692;BME280;61996;49.910;35.562;2024-02-28T03:21:06;100742.72;;;16.84;41.28
73692;BME280;61996;49.910;35.562;2024-02-28T03:24:10;100750.03;;;16.80;41.40
73692;BME280;61996;49.910;35.562;2024-02-28T03:27:13;100748.22;;;16.81;41.36
73692;BME280;61996;49.910;35.562;2024-02-28T03:30:16;100756.31;;;16.79;41.51
73692;BME280;61996;49.910;35.562;2024-02-28T03:33:19;100755.56;;;16.77;41.50
73692;BME280;61996;49.910;35.562;2024-02-28T03:36:22;100742.34;;;16.76;41.44
73692;BME280;61996;49.910;35.562;2024-02-28T03:39:26;100752.97;;;16.76;41.37
73692;BME280;61996;49.910;35.562;2024-02-28T03:42:29;100750.41;;;16.74;41.36
73692;BME280;61996;49.910;35.562;2024-02-28T03:45:36;100756.25;;;16.93;41.04
73692;BME280;61996;49.910;35.562;2024-02-28T03:48:39;100760.00;;;17.04;40.63
73692;BME280;61996;49.910;35.562;2024-02-28T03:51:43;100761.13;;;17.14;40.51
73692;BME280;61996;49.910;35.562;2024-02-28T03:54:48;100759.88;;;17.19;40.28
73692;BME280;61996;49.910;35.562;2024-02-28T03:57:50;100765.25;;;17.32;40.20
73692;BME280;61996;49.910;35.562;2024-02-28T04:00:54;100758.25;;;17.44;40.03
73692;BME280;61996;49.910;35.562;2024-02-28T04:03:57;100766.78;;;17.49;39.85
73692;BME280;61996;49.910;35.562;2024-02-28T04:07:00;100763.59;;;17.57;39.88
73692;BME280;61996;49.910;35.562;2024-02-28T04:10:05;100769.47;;;17.62;39.91
73692;BME280;61996;49.910;35.562;2024-02-28T04:13:08;100766.41;;;17.68;39.91
73692;BME280;61996;49.910;35.562;2024-02-28T04:16:11;100777.09;;;17.93;39.54
73692;BME280;61996;49.910;35.562;2024-02-28T04:19:14;100771.31;;;17.87;39.33
73692;BME280;61996;49.910;35.562;2024-02-28T04:22:17;100775.81;;;17.86;39.64
73692;BME280;61996;49.910;35.562;2024-02-28T04:25:22;100779.66;;;17.82;39.28
73692;BME280;61996;49.910;35.562;2024-02-28T04:28:25;100781.53;;;17.80;39.88
73692;BME280;61996;49.910;35.562;2024-02-28T04:31:28;100782.41;;;17.80;40.05
73692;BME280;61996;49.910;35.562;2024-02-28T04:34:31;100785.81;;;17.83;39.71
73692;BME280;61996;49.910;35.562;2024-02-28T04:37:33;100787.09;;;17.77;39.96
73692;BME280;61996;49.910;35.562;2024-02-28T04:40:39;100788.16;;;17.74;39.92
73692;BME280;61996;49.910;35.562;2024-02-28T04:43:42;100792.16;;;17.67;39.90
73692;BME280;61996;49.910;35.562;2024-02-28T04:46:45;100781.81;;;17.63;40.04
73692;BME280;61996;49.910;35.562;2024-02-28T04:49:48;100796.91;;;17.62;39.91
73692;BME280;61996;49.910;35.562;2024-02-28T04:52:50;100791.03;;;17.57;40.15
73692;BME280;61996;49.910;35.562;2024-02-28T04:55:55;100802.88;;;17.53;40.11
73692;BME280;61996;49.910;35.562;2024-02-28T04:58:58;100802.31;;;17.48;40.18
73692;BME280;61996;49.910;35.562;2024-02-28T05:02:01;100802.94;;;17.39;40.23
73692;BME280;61996;49.910;35.562;2024-02-28T05:05:05;100805.66;;;17.37;40.13
73692;BME280;61996;49.910;35.562;2024-02-28T05:08:08;100800.97;;;17.28;40.29
73692;BME280;61996;49.910;35.562;2024-02-28T05:11:12;100795.63;;;17.28;40.12
73692;BME280;61996;49.910;35.562;2024-02-28T05:14:15;100803.91;;;17.23;40.22
73692;BME280;61996;49.910;35.562;2024-02-28T05:17:18;100799.66;;;17.21;40.28
73692;BME280;61996;49.910;35.562;2024-02-28T05:20:21;100803.56;;;17.15;40.30
73692;BME280;61996;49.910;35.562;2024-02-28T05:23:24;100800.91;;;17.15;40.47
73692;BME280;61996;49.910;35.562;2024-02-28T05:26:28;100808.13;;;17.13;40.28
73692;BME280;61996;49.910;35.562;2024-02-28T05:29:32;100807.47;;;17.10;40.56
73692;BME280;61996;49.910;35.562;2024-02-28T05:32:35;100805.00;;;17.07;40.51
73692;BME280;61996;49.910;35.562;2024-02-28T05:35:38;100807.22;;;17.00;40.52
73692;BME280;61996;49.910;35.562;2024-02-28T05:38:41;100804.75;;;16.97;40.61
73692;BME280;61996;49.910;35.562;2024-02-28T05:41:45;100806.53;;;16.96;40.69
73692;BME280;61996;49.910;35.562;2024-02-28T05:44:48;100801.66;;;16.90;40.76
73692;BME280;61996;49.910;35.562;2024-02-28T05:47:52;100808.84;;;16.88;40.71
73692;BME280;61996;49.910;35.562;2024-02-28T05:50:55;100806.28;;;16.87;40.67
73692;BME280;61996;49.910;35.562;2024-02-28T05:53:58;100797.47;;;16.86;40.70
73692;BME280;61996;49.910;35.562;2024-02-28T05:57:02;100816.16;;;16.85;40.63
73692;BME280;61996;49.910;35.562;2024-02-28T06:00:05;100810.06;;;16.83;40.64
73692;BME280;61996;49.910;35.562;2024-02-28T06:03:12;100815.50;;;16.81;40.71
73692;BME280;61996;49.910;35.562;2024-02-28T06:06:15;100816.34;;;16.82;40.65
73692;BME280;61996;49.910;35.562;2024-02-28T06:09:18;100812.84;;;16.81;40.65
73692;BME280;61996;49.910;35.562;2024-02-28T06:12:22;100816.66;;;16.77;40.81
73692;BME280;61996;49.910;35.562;2024-02-28T06:15:25;100816.66;;;16.77;40.72
73692;BME280;61996;49.910;35.562;2024-02-28T06:18:28;100810.66;;;16.74;40.71
73692;BME280;61996;49.910;35.562;2024-02-28T06:21:35;100819.50;;;16.74;40.88
73692;BME280;61996;49.910;35.562;2024-02-28T06:24:38;100824.81;;;16.74;40.77
73692;BME280;61996;49.910;35.562;2024-02-28T06:27:42;100825.00;;;16.71;40.90
73692;BME280;61996;49.910;35.562;2024-02-28T06:30:45;100828.66;;;16.68;40.79
73692;BME280;61996;49.910;35.562;2024-02-28T06:33:48;100830.56;;;16.66;40.84
73692;BME280;61996;49.910;35.562;2024-02-28T06:36:51;100827.06;;;16.66;40.82
73692;BME280;61996;49.910;35.562;2024-02-28T06:39:55;100824.41;;;16.66;40.88
73692;BME280;61996;49.910;35.562;2024-02-28T06:43:00;100823.53;;;16.65;41.03
73692;BME280;61996;49.910;35.562;2024-02-28T06:46:03;100821.00;;;16.64;40.82
73692;BME280;61996;49.910;35.562;2024-02-28T06:49:06;100825.47;;;16.63;41.04
73692;BME280;61996;49.910;35.562;2024-02-28T06:52:12;100817.75;;;16.59;41.05
73692;BME280;61996;49.910;35.562;2024-02-28T06:55:15;100823.34;;;16.54;41.01
73692;BME280;61996;49.910;35.562;2024-02-28T06:58:19;100826.00;;;16.54;41.05
73692;BME280;61996;49.910;35.562;2024-02-28T07:01:22;100839.22;;;16.56;40.88
73692;BME280;61996;49.910;35.562;2024-02-28T07:04:25;100833.13;;;16.54;41.03
73692;BME280;61996;49.910;35.562;2024-02-28T07:07:28;100834.94;;;16.53;41.04
73692;BME280;61996;49.910;35.562;2024-02-28T07:10:31;100835.03;;;16.52;41.07
73692;BME280;61996;49.910;35.562;2024-02-28T07:13:36;100821.66;;;16.53;41.20
73692;BME280;61996;49.910;35.562;2024-02-28T07:16:40;100821.94;;;16.49;41.09
73692;BME280;61996;49.910;35.562;2024-02-28T07:19:43;100829.91;;;16.49;40.96
73692;BME280;61996;49.910;35.562;2024-02-28T07:22:46;100823.81;;;16.47;41.05
73692;BME280;61996;49.910;35.562;2024-02-28T07:25:49;100828.19;;;16.48;41.23
73692;BME280;61996;49.910;35.562;2024-02-28T07:28:53;100834.44;;;16.47;41.25
73692;BME280;61996;49.910;35.562;2024-02-28T07:31:56;100824.78;;;16.45;41.16
73692;BME280;61996;49.910;35.562;2024-02-28T07:34:59;100824.03;;;16.43;41.20
73692;BME280;61996;49.910;35.562;2024-02-28T07:38:02;100835.41;;;16.45;41.16
73692;BME280;61996;49.910;35.562;2024-02-28T07:41:06;100829.34;;;16.43;41.15
73692;BME280;61996;49.910;35.562;2024-02-28T07:44:10;100829.50;;;16.40;41.25
73692;BME280;61996;49.910;35.562;2024-02-28T07:47:13;100834.81;;;16.40;41.35
73692;BME280;61996;49.910;35.562;2024-02-28T07:50:16;100828.50;;;16.43;41.26
73692;BME280;61996;49.910;35.562;2024-02-28T07:53:19;100824.19;;;16.40;41.21
73692;BME280;61996;49.910;35.562;2024-02-28T07:56:23;100839.28;;;16.40;41.04
73692;BME280;61996;49.910;35.562;2024-02-28T07:59:27;100835.66;;;16.41;41.24
73692;BME280;61996;49.910;35.562;2024-02-28T08:02:30;100826.84;;;16.40;41.06
73692;BME280;61996;49.910;35.562;2024-02-28T08:05:33;100820.78;;;16.38;41.18
73692;BME280;61996;49.910;35.562;2024-02-28T08:08:43;100812.94;;;16.37;41.17
73692;BME280;61996;49.910;35.562;2024-02-28T08:11:46;100815.50;;;16.38;41.11
73692;BME280;61996;49.910;35.562;2024-02-28T08:14:51;100800.41;;;16.39;41.07
73692;BME280;61996;49.910;35.562;2024-02-28T08:17:54;100805.81;;;16.37;41.15
73692;BME280;61996;49.910;35.562;2024-02-28T08:20:58;100807.63;;;16.37;41.13
73692;BME280;61996;49.910;35.562;2024-02-28T08:24:03;100804.28;;;16.33;40.99
73692;BME280;61996;49.910;35.562;2024-02-28T08:27:06;100805.91;;;16.36;41.18
73692;BME280;61996;49.910;35.562;2024-02-28T08:30:11;100808.47;;;16.37;41.02
73692;BME280;61996;49.910;35.562;2024-02-28T08:33:14;100803.38;;;16.34;41.25
73692;BME280;61996;49.910;35.562;2024-02-28T08:36:19;100795.47;;;16.33;41.07
73692;BME280;61996;49.910;35.562;2024-02-28T08:39:22;100795.31;;;16.36;41.11
73692;BME280;61996;49.910;35.562;2024-02-28T08:42:26;100796.16;;;16.36;40.99
73692;BME280;61996;49.910;35.562;2024-02-28T08:45:30;100791.78;;;16.35;40.91
73692;BME280;61996;49.910;35.562;2024-02-28T08:48:37;100784.84;;;16.33;41.04
73692;BME280;61996;49.910;35.562;2024-02-28T08:51:41;100779.53;;;16.33;40.88
73692;BME280;61996;49.910;35.562;2024-02-28T08:54:47;100782.13;;;16.34;41.12
73692;BME280;61996;49.910;35.562;2024-02-28T08:57:50;100778.78;;;16.31;41.13
73692;BME280;61996;49.910;35.562;2024-02-28T09:00:54;100772.38;;;16.35;41.03
73692;BME280;61996;49.910;35.562;2024-02-28T09:03:57;100777.75;;;16.33;40.89
73692;BME280;61996;49.910;35.562;2024-02-28T09:07:00;100771.78;;;16.30;41.08
73692;BME280;61996;49.910;35.562;2024-02-28T09:10:04;100768.19;;;16.31;41.25
73692;BME280;61996;49.910;35.562;2024-02-28T09:13:08;100764.66;;;16.30;41.15
73692;BME280;61996;49.910;35.562;2024-02-28T09:16:13;100768.94;;;16.33;40.98
73692;BME280;61996;49.910;35.562;2024-02-28T09:19:16;100758.41;;;16.31;41.07
73692;BME280;61996;49.910;35.562;2024-02-28T09:22:20;100759.16;;;16.33;41.10
73692;BME280;61996;49.910;35.562;2024-02-28T09:25:23;100761.91;;;16.32;41.05
73692;BME280;61996;49.910;35.562;2024-02-28T09:28:29;100762.59;;;16.35;41.06
73692;BME280;61996;49.910;35.562;2024-02-28T09:31:33;100757.28;;;16.35;40.94
73692;BME280;61996;49.910;35.562;2024-02-28T09:34:37;100758.38;;;16.60;41.17
73692;BME280;61996;49.910;35.562;2024-02-28T09:37:40;100756.13;;;16.39;40.93
73692;BME280;61996;49.910;35.562;2024-02-28T09:40:45;100763.13;;;16.26;41.17
73692;BME280;61996;49.910;35.562;2024-02-28T09:43:48;100758.94;;;16.65;41.09
73692;BME280;61996;49.910;35.562;2024-02-28T09:46:53;100749.69;;;16.72;41.02
73692;BME280;61996;49.910;35.562;2024-02-28T09:49:56;100760.47;;;16.69;40.72
73692;BME280;61996;49.910;35.562;2024-02-28T09:53:00;100745.75;;;16.92;40.99
73692;BME280;61996;49.910;35.562;2024-02-28T09:56:11;100744.94;;;17.04;40.70
73692;BME280;61996;49.910;35.562;2024-02-28T09:59:14;100748.84;;;16.98;40.52
73692;BME280;61996;49.910;35.562;2024-02-28T10:02:19;100739.91;;;17.26;40.65
73692;BME280;61996;49.910;35.562;2024-02-28T10:05:23;100731.16;;;17.64;39.93
73692;BME280;61996;49.910;35.562;2024-02-28T10:08:28;100729.31;;;17.39;40.14
73692;BME280;61996;49.910;35.562;2024-02-28T10:11:33;100726.84;;;17.36;40.15
73692;BME280;61996;49.910;35.562;2024-02-28T10:14:37;100722.94;;;17.42;39.76
73692;BME280;61996;49.910;35.562;2024-02-28T10:17:42;100734.13;;;17.47;39.80
73692;BME280;61996;49.910;35.562;2024-02-28T10:20:45;100734.63;;;17.52;39.68
73692;BME280;61996;49.910;35.562;2024-02-28T10:23:49;100726.34;;;17.57;39.58
73692;BME280;61996;49.910;35.562;2024-02-28T10:26:52;100730.31;;;17.64;39.62
73692;BME280;61996;49.910;35.562;2024-02-28T10:29:57;100725.53;;;17.69;39.33
73692;BME280;61996;49.910;35.562;2024-02-28T10:33:02;100732.56;;;17.70;39.50
73692;BME280;61996;49.910;35.562;2024-02-28T10:36:05;100731.44;;;17.74;39.35
73692;BME280;61996;49.910;35.562;2024-02-28T10:39:08;100725.78;;;17.78;39.36
73692;BME280;61996;49.910;35.562;2024-02-28T10:42:12;100720.25;;;17.82;39.32
73692;BME280;61996;49.910;35.562;2024-02-28T10:45:17;100717.19;;;17.88;39.31
73692;BME280;61996;49.910;35.562;2024-02-28T10:48:42;100716.00;;;17.92;39.08
73692;BME280;61996;49.910;35.562;2024-02-28T10:51:45;100709.50;;;17.96;39.14
73692;BME280;61996;49.910;35.562;2024-02-28T10:54:50;100694.16;;;17.99;39.01
73692;BME280;61996;49.910;35.562;2024-02-28T10:57:58;100694.81;;;18.03;38.92
73692;BME280;61996;49.910;35.562;2024-02-28T11:01:03;100683.19;;;18.04;39.06
73692;BME280;61996;49.910;35.562;2024-02-28T11:04:07;100690.09;;;18.06;38.84
73692;BME280;61996;49.910;35.562;2024-02-28T11:07:10;100685.53;;;18.08;38.93
73692;BME280;61996;49.910;35.562;2024-02-28T11:10:14;100679.69;;;18.03;38.88
73692;BME280;61996;49.910;35.562;2024-02-28T11:13:21;100681.38;;;18.04;39.00
73692;BME280;61996;49.910;35.562;2024-02-28T11:16:27;100670.31;;;17.98;39.02
73692;BME280;61996;49.910;35.562;2024-02-28T11:19:33;100677.69;;;17.94;39.18
73692;BME280;61996;49.910;35.562;2024-02-28T11:22:37;100667.22;;;17.91;39.10
73692;BME280;61996;49.910;35.562;2024-02-28T11:25:40;100675.34;;;17.90;39.30
73692;BME280;61996;49.910;35.562;2024-02-28T11:28:43;100669.69;;;17.82;39.35
73692;BME280;61996;49.910;35.562;2024-02-28T11:31:46;100667.47;;;17.75;39.33
73692;BME280;61996;49.910;35.562;2024-02-28T11:34:50;100659.47;;;17.75;39.47
73692;BME280;61996;49.910;35.562;2024-02-28T11:37:54;100656.94;;;17.74;39.33
73692;BME280;61996;49.910;35.562;2024-02-28T11:40:58;100662.34;;;17.72;39.43
73692;BME280;61996;49.910;35.562;2024-02-28T11:44:01;100657.31;;;17.68;39.56
73692;BME280;61996;49.910;35.562;2024-02-28T11:47:04;100646.69;;;17.68;39.55
73692;BME280;61996;49.910;35.562;2024-02-28T11:50:08;100654.88;;;17.65;39.68
73692;BME280;61996;49.910;35.562;2024-02-28T11:53:11;100651.56;;;17.61;39.58
73692;BME280;61996;49.910;35.562;2024-02-28T11:56:14;100640.16;;;17.59;39.63
73692;BME280;61996;49.910;35.562;2024-02-28T11:59:21;100652.00;;;17.55;39.60
73692;BME280;61996;49.910;35.562;2024-02-28T12:02:24;100646.03;;;17.51;39.71
73692;BME280;61996;49.910;35.562;2024-02-28T12:05:29;100653.06;;;17.52;39.71
73692;BME280;61996;49.910;35.562;2024-02-28T12:08:32;100653.25;;;17.49;39.69
73692;BME280;61996;49.910;35.562;2024-02-28T12:11:35;100647.22;;;17.47;39.73
73692;BME280;61996;49.910;35.562;2024-02-28T12:14:39;100646.34;;;17.47;39.70
73692;BME280;61996;49.910;35.562;2024-02-28T12:17:44;100639.34;;;17.46;39.65
73692;BME280;61996;49.910;35.562;2024-02-28T12:20:48;100642.94;;;17.45;39.65
73692;BME280;61996;49.910;35.562;2024-02-28T12:23:51;100635.41;;;17.39;39.75
73692;BME280;61996;49.910;35.562;2024-02-28T12:26:54;100637.94;;;17.40;39.73
73692;BME280;61996;49.910;35.562;2024-02-28T12:29:57;100633.03;;;17.34;39.87
73692;BME280;61996;49.910;35.562;2024-02-28T12:33:00;100638.38;;;17.34;39.74
73692;BME280;61996;49.910;35.562;2024-02-28T12:36:04;100636.56;;;17.35;39.75
73692;BME280;61996;49.910;35.562;2024-02-28T12:39:08;100643.56;;;17.36;39.63
73692;BME280;61996;49.910;35.562;2024-02-28T12:42:12;100638.47;;;17.33;39.83
73692;BME280;61996;49.910;35.562;2024-02-28T12:45:16;100653.66;;;17.31;39.60
73692;BME280;61996;49.910;35.562;2024-02-28T12:48:19;100643.38;;;17.39;39.65
73692;BME280;61996;49.910;35.562;2024-02-28T12:51:37;100649.56;;;17.39;39.76
73692;BME280;61996;49.910;35.562;2024-02-28T12:54:40;100648.69;;;17.39;39.68
73692;BME280;61996;49.910;35.562;2024-02-28T12:57:43;100651.34;;;17.39;39.65
73692;BME280;61996;49.910;35.562;2024-02-28T13:00:46;100659.22;;;17.40;39.75
73692;BME280;61996;49.910;35.562;2024-02-28T13:03:49;100649.13;;;17.45;39.72
73692;BME280;61996;49.910;35.562;2024-02-28T13:06:54;100645.50;;;17.46;39.64
73692;BME280;61996;49.910;35.562;2024-02-28T13:09:57;100652.72;;;17.57;39.58
73692;BME280;61996;49.910;35.562;2024-02-28T13:13:00;100651.69;;;17.72;39.40
73692;BME280;61996;49.910;35.562;2024-02-28T13:16:03;100643.72;;;17.85;39.29
73692;BME280;61996;49.910;35.562;2024-02-28T13:19:06;100652.75;;;17.95;39.01
73692;BME280;61996;49.910;35.562;2024-02-28T13:22:10;100656.69;;;18.02;39.09
73692;BME280;61996;49.910;35.562;2024-02-28T13:25:13;100654.00;;;18.15;39.01
73692;BME280;61996;49.910;35.562;2024-02-28T13:28:17;100655.56;;;18.30;38.80
73692;BME280;61996;49.910;35.562;2024-02-28T13:31:19;100650.09;;;18.45;38.55
73692;BME280;61996;49.910;35.562;2024-02-28T13:34:22;100643.56;;;18.49;38.54
73692;BME280;61996;49.910;35.562;2024-02-28T13:37:27;100649.00;;;18.47;38.49
73692;BME280;61996;49.910;35.562;2024-02-28T13:40:30;100643.88;;;18.57;38.62
73692;BME280;61996;49.910;35.562;2024-02-28T13:43:33;100647.03;;;18.62;38.52
73692;BME280;61996;49.910;35.562;2024-02-28T13:46:36;100638.19;;;18.74;38.55
73692;BME280;61996;49.910;35.562;2024-02-28T13:49:42;100646.84;;;18.89;38.18
73692;BME280;61996;49.910;35.562;2024-02-28T13:52:47;100636.31;;;18.87;38.42
73692;BME280;61996;49.910;35.562;2024-02-28T13:55:50;100645.38;;;18.85;38.39
73692;BME280;61996;49.910;35.562;2024-02-28T13:58:53;100632.91;;;18.85;38.40
73692;BME280;61996;49.910;35.562;2024-02-28T14:01:56;100644.19;;;18.89;38.38
73692;BME280;61996;49.910;35.562;2024-02-28T14:05:01;100636.69;;;18.94;38.35
73692;BME280;61996;49.910;35.562;2024-02-28T14:08:09;100639.34;;;18.94;38.34
73692;BME280;61996;49.910;35.562;2024-02-28T14:11:14;100641.91;;;18.96;38.32
73692;BME280;61996;49.910;35.562;2024-02-28T14:14:19;100637.72;;;19.15;37.87
73692;BME280;61996;49.910;35.562;2024-02-28T14:17:22;100638.84;;;19.24;38.08
73692;BME280;61996;49.910;35.562;2024-02-28T14:20:25;100633.50;;;19.13;38.14
73692;BME280;61996;49.910;35.562;2024-02-28T14:23:30;100626.56;;;19.10;38.40
73692;BME280;61996;49.910;35.562;2024-02-28T14:26:33;100637.03;;;19.25;37.91
73692;BME280;61996;49.910;35.562;2024-02-28T14:29:36;100635.78;;;19.17;38.16
73692;BME280;61996;49.910;35.562;2024-02-28T14:32:39;100639.78;;;19.12;38.47
73692;BME280;61996;49.910;35.562;2024-02-28T14:35:43;100633.38;;;19.14;38.58
73692;BME280;61996;49.910;35.562;2024-02-28T14:38:47;100631.44;;;19.16;38.56
73692;BME280;61996;49.910;35.562;2024-02-28T14:41:50;100636.38;;;19.10;38.28
73692;BME280;61996;49.910;35.562;2024-02-28T14:44:53;100632.41;;;19.15;38.59
73692;BME280;61996;49.910;35.562;2024-02-28T14:47:56;100636.88;;;19.15;38.58
73692;BME280;61996;49.910;35.562;2024-02-28T14:50:59;100626.94;;;19.17;38.10
73692;BME280;61996;49.910;35.562;2024-02-28T14:54:05;100620.81;;;19.39;38.23
73692;BME280;61996;49.910;35.562;2024-02-28T14:57:08;100618.88;;;19.30;38.56
73692;BME280;61996;49.910;35.562;2024-02-28T15:00:11;100623.84;;;19.34;38.67
73692;BME280;61996;49.910;35.562;2024-02-28T15:03:16;100630.00;;;19.24;38.33
73692;BME280;61996;49.910;35.562;2024-02-28T15:06:20;100626.63;;;19.33;38.74
73692;BME280;61996;49.910;35.562;2024-02-28T15:09:24;100624.28;;;19.17;38.96
73692;BME280;61996;49.910;35.562;2024-02-28T15:12:27;100619.31;;;19.12;38.72
73692;BME280;61996;49.910;35.562;2024-02-28T15:15:31;100624.88;;;19.09;38.98
73692;BME280;61996;49.910;35.562;2024-02-28T15:18:35;100619.78;;;19.06;38.83
73692;BME280;61996;49.910;35.562;2024-02-28T15:21:38;100622.19;;;19.09;39.46
73692;BME280;61996;49.910;35.562;2024-02-28T15:24:42;100633.69;;;18.99;38.82
73692;BME280;61996;49.910;35.562;2024-02-28T15:27:45;100630.00;;;18.88;39.19
73692;BME280;61996;49.910;35.562;2024-02-28T15:30:48;100631.34;;;18.94;39.42
73692;BME280;61996;49.910;35.562;2024-02-28T15:33:51;100635.22;;;18.90;38.97
73692;BME280;61996;49.910;35.562;2024-02-28T15:36:54;100633.06;;;18.95;39.47
73692;BME280;61996;49.910;35.562;2024-02-28T15:39:58;100636.75;;;18.81;39.27
73692;BME280;61996;49.910;35.562;2024-02-28T15:43:01;100631.16;;;18.73;39.17
73692;BME280;61996;49.910;35.562;2024-02-28T15:46:05;100632.25;;;18.71;39.29
73692;BME280;61996;49.910;35.562;2024-02-28T15:49:08;100635.13;;;18.68;39.16